• Join FlightAware (Why Join?)
  • Login
  • US Flag 
02:18AM EDT


 

Airport Tracker/Info


-or-


 

Live Flight TrackerFlight Track Log ✈ AAL963 ✈ 26-Oct-2013 ✈ KDFW - SBGR / GRU

Flight Track Log - Related Links

Times and Time Zones

All times are in EDT time to prevent confusion due to time zone crossing. See the AAL963 flight status page for this flight to view local times or setup timezone preferences in your user account.

Time Position Orientation Groundspeed Altitude Reporting Facility
EDT Latitude Longitude Course Direction KTS MPH feet Rate Location/Type
01:58AM 32.8380 -97.0470 165° South 203 234 2,500  Level FlightAware
01:58AM 32.8100 -97.0380 165° South 241 277 2,900 1,140 Climbing FlightAware
01:59AM 32.7750 -97.0260 164° South 266 306 3,700 1,620 Climbing FlightAware
01:59AM 32.7590 -96.9970 123° Southeast 274 315 4,400 1,920 Climbing FlightAware
01:59AM 32.7580 -96.9830 95° East 277 319 4,700 2,220 Climbing FlightAware
02:00AM 32.7594 -96.9307 88° East 285 328 6,000 2,100 Climbing FlightAware ADS-B (KAFW)
02:01AM 32.7609 -96.8302 89° East 311 358 8,000 2,100 Climbing FlightAware ADS-B (KAFW)
02:01AM 32.7609 -96.8000 90° East 315 362 8,700 2,400 Climbing FlightAware ADS-B (KAFW)
02:01AM 32.7610 -96.7647 90° East 318 366 9,500 1,800 Climbing FlightAware ADS-B (KAFW)
02:02AM 32.7608 -96.7202 90° East 332 382 10,300 1,860 Climbing FlightAware ADS-B (KAFW)
02:03AM 32.7610 -96.5760 109° East 370 426 12,600 2,160 Climbing FlightAware
02:04AM 32.7609 -96.4709 90° East 383 441 14,600 2,220 Climbing FlightAware ADS-B (KAFW)
02:05AM 32.7600 -96.3520 90° East 398 458 16,700 2,220 Climbing FlightAware
02:05AM 32.7572 -96.3113 95° East 402 463 17,400 2,160 Climbing FlightAware ADS-B (KAFW)
02:06AM 32.7471 -96.2409 100° East 411 473 18,800 2,040 Climbing FlightAware ADS-B (KAFW)
02:06AM 32.7321 -96.1466 101° East 420 483 19,900 1,800 Climbing FlightAware ADS-B
02:07AM 32.7209 -96.0778 101° East 430 495 20,700 1,380 Climbing FlightAware ADS-B
02:07AM 32.7090 -95.9969 100° East 446 513 21,400 1,200 Climbing FlightAware ADS-B
02:08AM 32.7089 -95.9590 90° East 457 526 21,700 1,980 Climbing FlightAware ADS-B
02:08AM 32.7412 -95.8494 71° East 454 522 23,500 2,160 Climbing FlightAware ADS-B (KAFW)
02:09AM 32.7700 -95.7970 57° Northeast 455 524 24,400 1,800 Climbing FlightAware ADS-B
02:09AM 32.7770 -95.7845 56° Northeast 454 522 24,700 1,740 Climbing FlightAware ADS-B (KAFW)
02:09AM 32.8065 -95.7327 56° Northeast 457 526 25,300 1,680 Climbing FlightAware ADS-B
02:10AM 32.8422 -95.6690 56° Northeast 462 532 26,000 1,500 Climbing FlightAware ADS-B
02:10AM 32.8795 -95.6013 57° Northeast 464 534 26,900 1,260 Climbing FlightAware ADS-B
02:11AM 32.9320 -95.4980 59° Northeast 475 547 27,700 1,020 Climbing FlightAware
02:12AM 32.9450 -95.4430 74° East 479 551 28,100 1,020 Climbing FlightAware
02:12AM 32.9500 -95.3945 83° East 480 552 28,400 1,020 Climbing FlightAware ADS-B
02:12AM 32.9492 -95.3670 92° East 478 550 28,600 1,080 Climbing FlightAware ADS-B
02:13AM 32.9160 -95.2306 106° East 479 551 29,600 1,020 Climbing FlightAware ADS-B
02:13AM 32.8931 -95.1538 110° East 485 558 30,100 1,020 Climbing FlightAware ADS-B
02:14AM 32.8645 -95.0587 110° East 492 566 30,800 -300 Climbing FlightAware ADS-B
02:15AM 32.8530 -95.0140 107° East 483 556 29,800 -900 Descending FlightAware
02:15AM 32.8310 -94.9370 109° East 483 556 29,800  Level FlightAware
02:16AM 32.8080 -94.8580 109° East 483 556 29,800 2,220 Level FlightAware
02:16AM 32.7452 -94.6960 115° Southeast 516 594 32,600 3,420 Climbing FlightAware ADS-B
02:17AM 32.7237 -94.6545 122° Southeast 513 590 32,900 480 Climbing FlightAware ADS-B
02:17AM 32.6815 -94.5817 125° Southeast 521 600 33,000 60 Climbing FlightAware ADS-B
02:18AM 32.6280 -94.4900 125° Southeast 523 602 33,000  Level FlightAware
02:18AM 32.5773 -94.4034 125° Southeast 523 602 33,000  Level FlightAware ADS-B
02:19AM 32.5342 -94.3300 125° Southeast 522 601 33,000  Level FlightAware ADS-B
02:19AM 32.4923 -94.2587 125° Southeast 525 604 33,000  Level FlightAware ADS-B
02:20AM 32.4481 -94.1834 125° Southeast 523 602 33,000  Level FlightAware ADS-B
02:20AM 32.4069 -94.1136 125° Southeast 518 596 33,000  Level FlightAware ADS-B
02:21AM 32.3649 -94.0427 125° Southeast 515 593 33,000  Level FlightAware ADS-B
02:22AM 32.3229 -93.9719 125° Southeast 513 590 33,000  Level FlightAware ADS-B
02:22AM 32.2776 -93.8960 125° Southeast 512 589 33,000  Level FlightAware ADS-B
02:23AM 32.2306 -93.8168 125° Southeast 514 592 33,000  Level FlightAware ADS-B
02:23AM 32.1893 -93.7475 125° Southeast 515 593 33,000  Level FlightAware ADS-B
02:24AM 32.1478 -93.6783 125° Southeast 515 593 33,000  Level FlightAware ADS-B
02:24AM 32.0953 -93.5906 125° Southeast 515 593 33,000  Level FlightAware ADS-B
02:25AM 32.0539 -93.5217 125° Southeast 514 592 33,000  Level FlightAware ADS-B
02:26AM 32.0980 -93.5600 324° Northwest 523 602 33,000  Level FlightAware
02:26AM 32.0690 -93.5090 124° Southeast 523 602 33,000  Level FlightAware
02:27AM 32.0140 -93.4130 124° Southeast 523 602 33,000  Level FlightAware
02:28AM 31.9450 -93.2920 124° Southeast 523 602 33,000  Level FlightAware
02:28AM 31.7508 -93.0203 130° Southeast 521 600 33,000  Level FlightAware ADS-B
02:29AM 31.6978 -92.9335 126° Southeast 523 602 33,000  Level FlightAware ADS-B
02:30AM 31.6093 -92.7881 126° Southeast 522 601 33,000  Level FlightAware ADS-B
02:31AM 31.5477 -92.6871 126° Southeast 526 605 33,000  Level FlightAware ADS-B
02:32AM 31.4209 -92.4799 126° Southeast 533 613 33,000  Level FlightAware ADS-B
02:33AM 31.3764 -92.4077 126° Southeast 530 610 33,000  Level FlightAware ADS-B
02:34AM 31.2932 -92.2727 126° Southeast 528 608 33,000  Level FlightAware ADS-B
02:35AM 31.2137 -92.1442 126° Southeast 515 593 33,000  Level FlightAware ADS-B
02:36AM 31.1536 -92.0473 126° Southeast 512 589 33,000  Level FlightAware ADS-B
02:40AM 30.7960 -91.4760 126° Southeast 515 593 33,000  Level FlightAware
02:41AM 30.7320 -91.3740 126° Southeast 516 594 33,000  Level FlightAware
02:42AM 30.6410 -91.2300 126° Southeast 517 595 33,000  Level FlightAware
02:42AM 30.6270 -91.2090 128° Southeast 517 595 33,000  Level FlightAware
02:42AM 30.5940 -91.1560 126° Southeast 518 596 33,000  Level FlightAware
02:43AM 30.5140 -91.0310 127° Southeast 521 600 33,000  Level FlightAware
02:45AM 30.3800 -90.8220 127° Southeast 523 602 33,000  Level FlightAware
02:45AM 30.3370 -90.7540 126° Southeast 523 602 33,000  Level FlightAware
02:46AM 30.2710 -90.6520 127° Southeast 524 603 33,000  Level FlightAware
02:47AM 30.2210 -90.5730 126° Southeast 523 602 33,000  Level FlightAware
02:47AM 30.1610 -90.4810 127° Southeast 522 601 33,000  Level FlightAware
02:48AM 30.0980 -90.3830 127° Southeast 523 602 33,000  Level FlightAware
02:49AM 30.0460 -90.3040 127° Southeast 524 603 33,000  Level FlightAware
02:50AM 29.9540 -90.1620 127° Southeast 525 604 33,000  Level FlightAware
02:50AM 29.8750 -90.0410 127° Southeast 525 604 33,000  Level FlightAware
02:51AM 29.7980 -89.9290 128° Southeast 522 601 33,000  Level FlightAware
02:52AM 29.6960 -89.7930 131° Southeast 524 603 33,000  Level FlightAware
02:53AM 29.6250 -89.6980 131° Southeast 526 605 33,000  Level FlightAware
02:54AM 29.5760 -89.6310 130° Southeast 528 608 33,000  Level FlightAware
02:54AM 29.5220 -89.5570 130° Southeast 528 608 33,000  Level FlightAware
02:55AM 29.4500 -89.4600 130° Southeast 526 605 33,000  Level FlightAware
02:55AM 29.4160 -89.4140 130° Southeast 526 605 33,000  Level FlightAware
02:57AM 29.3060 -89.2650 130° Southeast 527 606 33,000  Level FlightAware
02:58AM 29.2110 -89.1380 131° Southeast 527 606 33,000  Level FlightAware
02:58AM 29.1680 -89.0810 131° Southeast 527 606 33,000  Level FlightAware
02:58AM 29.1210 -89.0180 130° Southeast 528 608 33,000  Level FlightAware
02:59AM 29.0260 -88.8920 131° Southeast 527 606 33,000  Level FlightAware
03:00AM 28.9690 -88.8160 131° Southeast 527 606 33,000  Level FlightAware
03:01AM 28.9120 -88.7410 131° Southeast 526 605 33,000  Level FlightAware
03:02AM 28.8230 -88.6220 130° Southeast 528 608 33,000  Level FlightAware
03:02AM 28.7650 -88.5440 130° Southeast 528 608 33,000  Level FlightAware
03:03AM 28.7220 -88.4870 131° Southeast 530 610 33,000  Level FlightAware
03:03AM 28.6670 -88.4120 130° Southeast 532 612 33,000  Level FlightAware
03:04AM 28.6220 -88.3520 131° Southeast 534 615 33,000  Level FlightAware
03:04AM 28.5680 -88.2810 131° Southeast 535 616 33,000  Level FlightAware
03:05AM 28.5200 -88.2160 130° Southeast 536 617 33,000  Level FlightAware
03:05AM 28.4680 -88.1480 131° Southeast 541 623 33,000  Level FlightAware
03:06AM 28.4200 -88.0840 130° Southeast 545 627 33,000  Level FlightAware
03:07AM 28.3530 -87.9740 125° Southeast 561 646 33,000  Level FlightAware
03:07AM 28.3150 -87.8820 115° Southeast 570 656 33,000  Level FlightAware
03:08AM 28.2770 -87.7720 111° Southeast 571 657 33,000  Level FlightAware
03:08AM 28.2390 -87.6610 111° Southeast 567 652 33,000  Level FlightAware
03:09AM 28.2120 -87.5810 111° Southeast 565 650 33,000  Level FlightAware
03:10AM 28.1530 -87.4070 111° Southeast 567 652 33,000  Level FlightAware
03:11AM 28.1210 -87.3140 111° Southeast 568 654 33,000  Level FlightAware
03:11AM 28.0930 -87.2310 111° Southeast 570 656 33,000  Level FlightAware
03:12AM 28.0360 -87.0660 111° Southeast 569 655 33,000  Level FlightAware
03:12AM 28.0090 -86.9850 111° Southeast 569 655 33,000  Level FlightAware
03:13AM 27.9820 -86.9060 111° Southeast 569 655 33,000  Level FlightAware
03:14AM 27.9510 -86.8180 112° Southeast 568 654 33,000  Level FlightAware
03:14AM 27.9280 -86.7520 112° Southeast 567 652 33,000  Level FlightAware
03:15AM 27.8610 -86.5650 112° Southeast 565 650 33,000  Level FlightAware
03:16AM 27.8170 -86.4430 112° Southeast 565 650 33,000  Level FlightAware
03:16AM 27.7970 -86.3870 112° Southeast 566 651 33,000  Level FlightAware
03:17AM 27.7630 -86.2940 112° Southeast 566 651 33,000  Level FlightAware
03:17AM 27.7290 -86.1990 112° Southeast 567 652 33,000  Level FlightAware
03:18AM 27.6940 -86.1020 112° Southeast 567 652 33,000  Level FlightAware
03:19AM 27.6330 -85.9350 112° Southeast 563 648 33,000  Level FlightAware
03:19AM 27.6020 -85.8520 113° Southeast 564 649 33,000  Level FlightAware
03:21AM 27.5390 -85.6800 112° Southeast 563 648 33,000  Level FlightAware
03:22AM 27.4910 -85.5370 111° Southeast 563 648 33,000  Level FlightAware
03:22AM 27.4580 -85.4610 116° Southeast 570 656 33,000  Level FlightAware
03:23AM 27.3970 -85.2880 112° Southeast 561 646 33,000  Level FlightAware
03:24AM 27.3370 -85.1330 114° Southeast 565 650 33,000  Level FlightAware
03:24AM 27.3090 -85.0590 113° Southeast 562 647 33,000  Level FlightAware
03:25AM 27.2440 -84.8850 113° Southeast 558 642 33,000  Level FlightAware
03:26AM 27.2120 -84.8010 113° Southeast 558 642 33,000  Level FlightAware
03:26AM 27.1820 -84.7200 113° Southeast 558 642 33,000  Level FlightAware
03:27AM 27.1490 -84.6290 112° Southeast 558 642 33,000  Level FlightAware
03:28AM 27.1010 -84.5060 114° Southeast 560 644 33,000  Level FlightAware
03:28AM 27.0570 -84.3910 113° Southeast 562 647 33,000  Level FlightAware
03:29AM 27.0240 -84.2990 112° Southeast 562 647 33,000  Level FlightAware
03:30AM 26.9940 -84.2160 112° Southeast 562 647 33,000  Level FlightAware
03:30AM 26.9490 -84.1070 115° Southeast 567 652 33,000  Level FlightAware
03:31AM 26.9090 -84.0020 113° Southeast 565 650 33,000  Level FlightAware
03:31AM 26.8710 -83.9040 113° Southeast 564 649 33,000  Level FlightAware
03:32AM 26.8420 -83.8280 113° Southeast 563 648 33,000  Level FlightAware
03:32AM 26.8110 -83.7490 114° Southeast 563 648 33,000  Level FlightAware
03:33AM 26.7590 -83.6130 113° Southeast 563 648 33,000  Level FlightAware
03:34AM 26.7210 -83.5150 113° Southeast 564 649 33,000  Level FlightAware
03:34AM 26.6880 -83.4300 113° Southeast 563 648 33,000  Level FlightAware
03:35AM 26.6450 -83.3210 114° Southeast 562 647 33,000  Level FlightAware
03:36AM 26.6070 -83.2240 114° Southeast 562 647 33,000  Level FlightAware
03:36AM 26.5710 -83.1310 113° Southeast 560 644 33,000  Level FlightAware
03:37AM 26.5081 -82.9712 114° Southeast 559 643 33,000  Level FlightAware ADS-B (KMCO)
03:39AM 26.4149 -82.7353 114° Southeast 546 628 33,000  Level FlightAware ADS-B (KMCO)
03:39AM 26.3851 -82.6602 114° Southeast 543 625 33,000  Level FlightAware ADS-B (KMCO)
03:40AM 26.3527 -82.5788 114° Southeast 543 625 33,000  Level FlightAware ADS-B (KMCO)
03:41AM 26.3097 -82.4707 114° Southeast 541 623 33,000  Level FlightAware ADS-B (KMCO)
03:41AM 26.2772 -82.3893 114° Southeast 538 619 33,000  Level FlightAware ADS-B (KMCO)
03:42AM 26.2473 -82.3148 114° Southeast 535 616 33,000  Level FlightAware ADS-B (KMCO)
03:42AM 26.2201 -82.2467 114° Southeast 535 616 33,000  Level FlightAware ADS-B (KMCO)
03:43AM 26.1856 -82.1607 114° Southeast 536 617 33,000  Level FlightAware ADS-B (KMCO)
03:43AM 26.1546 -82.0835 114° Southeast 535 616 33,000  Level FlightAware ADS-B (KMCO)
03:44AM 26.1245 -82.0088 114° Southeast 534 615 33,000  Level FlightAware ADS-B (KMCO)
03:44AM 26.0945 -81.9347 114° Southeast 535 616 33,000  Level FlightAware ADS-B (KMCO)
03:45AM 26.0624 -81.8553 114° Southeast 536 617 33,000  Level FlightAware ADS-B (KMCO)
03:45AM 26.0266 -81.7667 114° Southeast 538 619 33,000  Level FlightAware ADS-B (KMCO)
03:46AM 25.9730 -81.6340 114° Southeast 539 620 33,000  Level FlightAware
03:47AM 25.9400 -81.5530 114° Southeast 536 617 33,000  Level FlightAware
03:48AM 25.8733 -81.3902 114° Southeast 534 615 33,000  Level FlightAware ADS-B (KMCO)
03:49AM 25.8130 -81.2430 114° Southeast 533 613 33,000  Level FlightAware
03:49AM 25.7810 -81.1660 115° Southeast 531 611 33,000  Level FlightAware
03:50AM 25.7470 -81.0820 114° Southeast 530 610 33,000  Level FlightAware
03:50AM 25.7060 -80.9840 115° Southeast 526 605 33,000  Level FlightAware
03:51AM 25.6760 -80.9100 114° Southeast 527 606 33,000  Level FlightAware
03:51AM 25.6500 -80.8480 115° Southeast 529 609 33,000  Level FlightAware
03:52AM 25.6090 -80.7500 115° Southeast 530 610 33,000  Level FlightAware
03:53AM 25.5720 -80.6600 114° Southeast 529 609 33,000  Level FlightAware
03:53AM 25.5260 -80.5500 115° Southeast 526 605 33,000  Level FlightAware
03:54AM 25.5010 -80.4910 115° Southeast 524 603 33,000  Level FlightAware
03:54AM 25.4800 -80.4400 115° Southeast 524 603 33,000  Level FlightAware
03:55AM 25.4300 -80.3200 115° Southeast 521 600 33,000  Level FlightAware
03:55AM 25.3940 -80.2350 115° Southeast 520 598 33,000  Level FlightAware
03:56AM 25.3640 -80.1440 110° East 531 611 33,000  Level FlightAware
03:56AM 25.3600 -80.0910 95° East 543 625 33,000  Level FlightAware
03:57AM 25.3770 -79.9810 80° East 557 641 33,000  Level FlightAware
03:58AM 25.4100 -79.8770 71° East 558 642 33,000  Level FlightAware
03:58AM 25.4060 -79.7620 92° East 535 616 33,000  Level FlightAware
03:59AM 25.3500 -79.6250 114° Southeast 528 608 33,000  Level FlightAware
04:00AM 25.3270 -79.5670 114° Southeast 526 605 33,000  Level FlightAware
04:00AM 25.2910 -79.4830 115° Southeast 524 603 33,000  Level FlightAware
04:01AM 25.2600 -79.4080 115° Southeast 524 603 33,000  Level FlightAware
04:01AM 25.2390 -79.3590 115° Southeast 524 603 33,000  Level FlightAware
04:03AM 25.1610 -79.1620 114° Southeast 549 632 33,000  Level FlightAware
04:03AM 25.1600 -79.0420 91° East 550 633 33,000  Level FlightAware
04:04AM 25.1600 -78.8920 90° East 549 632 33,000  Level FlightAware
04:05AM 25.1600 -78.7990 90° East 549 632 33,000  Level FlightAware
04:06AM 25.1600 -78.5910 90° East 548 631 33,000  Level FlightAware
04:06AM 25.1540 -78.5450 98° East 544 626 33,000  Level FlightAware
04:07AM 25.0790 -78.4040 120° Southeast 515 593 33,000  Level FlightAware
04:08AM 25.0500 -78.3590 125° Southeast 515 593 33,000  Level FlightAware
04:08AM 25.0190 -78.3070 123° Southeast 515 593 33,000  Level FlightAware
04:09AM 24.9640 -78.2180 124° Southeast 515 593 33,000  Level FlightAware
04:10AM 24.8950 -78.1050 124° Southeast 515 593 33,000  Level FlightAware
04:11AM 24.8540 -78.0390 124° Southeast 515 593 33,000  Level FlightAware
04:11AM 24.8180 -77.9790 123° Southeast 515 593 33,000  Level FlightAware
04:11AM 24.7910 -77.9350 124° Southeast 515 593 33,000  Level FlightAware
04:12AM 24.7370 -77.8460 124° Southeast 515 593 33,000  Level FlightAware
04:13AM 24.6950 -77.7780 124° Southeast 515 593 33,000  Level FlightAware
04:13AM 24.6540 -77.7110 124° Southeast 515 593 33,000  Level FlightAware
04:14AM 24.6120 -77.6430 124° Southeast 515 593 33,000  Level FlightAware
04:15AM 24.5330 -77.5140 124° Southeast 515 593 33,000  Level FlightAware
04:16AM 24.4910 -77.4450 124° Southeast 515 593 33,000  Level FlightAware
04:17AM 24.4230 -77.3350 124° Southeast 515 593 33,000  Level FlightAware
04:18AM 24.0589 -77.1981 124° Southeast 498 573 33,000  Level Miami Center
04:19AM 23.9650 -77.0839 132° Southeast 498 573 33,000  Level Miami Center
04:20AM 23.8669 -76.9747 134° Southeast 503 579 33,000  Level Miami Center
04:21AM 23.7856 -76.8747 132° Southeast 497 572 33,000  Level Miami Center
04:22AM 23.6894 -76.7658 134° Southeast 502 578 33,000  Level Miami Center
04:23AM 23.5953 -76.6594 134° Southeast 497 572 33,000  Level Miami Center
04:24AM 23.5011 -76.5553 135° Southeast 492 566 33,000  Level Miami Center
04:25AM 23.4089 -76.4469 133° Southeast 487 560 33,000  Level Miami Center
04:26AM 23.3122 -76.3386 134° Southeast 487 560 33,000 -300 Level Miami Center
04:27AM 23.2200 -76.2350 134° Southeast 487 560 32,400 -720 Descending Miami Center
04:28AM 23.1256 -76.1292 134° Southeast 487 560 31,600 -720 Descending Miami Center
04:29AM 23.0225 -76.0103 133° Southeast 487 560 31,000 -300 Descending Miami Center
04:30AM 22.9278 -75.9047 134° Southeast 487 560 31,000  Level Miami Center
04:31AM 22.8350 -75.7972 133° Southeast 487 560 31,000  Level Miami Center
04:32AM 22.7383 -75.6900 134° Southeast 487 560 31,000  Level Miami Center
04:33AM 22.6433 -75.5850 134° Southeast 487 560 31,000  Level Miami Center
04:34AM 22.5483 -75.4781 134° Southeast 487 560 31,000  Level Miami Center
04:35AM 22.4556 -75.3733 134° Southeast 487 560 31,000  Level Miami Center
04:36AM 22.3583 -75.2689 135° Southeast 487 560 31,000  Level Miami Center
04:37AM 22.2631 -75.1625 134° Southeast 487 560 31,000  Level Miami Center
04:38AM 22.1658 -75.0583 135° Southeast 487 560 31,000  Level Miami Center
04:39AM 22.0622 -74.9611 139° Southeast 487 560 31,000  Level Miami Center
04:40AM 21.9608 -74.8664 139° Southeast 487 560 31,000  Level Miami Center
04:41AM 21.8511 -74.7806 144° Southeast 487 560 31,000 480 Level Miami Center
04:42AM 21.7372 -74.6997 147° Southeast 487 560 32,000 900 Climbing Miami Center
04:43AM 21.6481 -74.6075 136° Southeast 487 560 32,800 420 Climbing Miami Center
04:44AM 21.5464 -74.5086 138° Southeast 492 566 32,900  Climbing Miami Center
04:45AM 21.4425 -74.4103 139° Southeast 492 566 32,900  Level Miami Center
04:46AM 21.3386 -74.3050 137° Southeast 497 572 32,900  Level Miami Center
04:47AM 21.2408 -74.2044 136° Southeast 497 572 33,000  Climbing Miami Center
04:48AM 21.1347 -74.1064 139° Southeast 497 572 32,900  Descending Miami Center
04:49AM 21.0308 -74.0153 141° Southeast 497 572 33,000  Climbing Miami Center
04:50AM 20.9267 -73.9197 139° Southeast 497 572 32,900 -60 Descending Miami Center
04:51AM 20.8206 -73.8242 140° Southeast 492 566 32,900  Level Miami Center
04:52AM 20.7164 -73.7311 140° Southeast 492 566 33,000  Climbing Miami Center
04:53AM 20.6122 -73.6383 140° Southeast 492 566 33,000  Level Miami Center
04:54AM 20.5122 -73.5456 139° Southeast 487 560 33,000  Level Miami Center
04:55AM 20.4081 -73.4528 140° Southeast 487 560 33,000  Level Miami Center
04:56AM 20.3017 -73.3603 141° Southeast 487 560 33,000  Level Miami Center
04:57AM 20.1994 -73.2681 140° Southeast 487 560 33,000  Level Miami Center
04:58AM 20.0850 -73.1847 146° Southeast 492 566 33,000  Level Miami Center
05:00AM 19.9047 -73.0800 151° Southeast  Level FlightAware Approximate
05:07AM 19.0639 -72.6151 152° Southeast  Level FlightAware Approximate
05:08AM 18.9442 -72.5480 152° Southeast  Level FlightAware Approximate
05:09AM 18.8245 -72.4809 152° Southeast  Level FlightAware Approximate
05:10AM 18.7048 -72.4139 152° Southeast  Level FlightAware Approximate
05:11AM 18.5846 -72.3481 153° Southeast  Level FlightAware Approximate
05:12AM 18.4639 -72.2831 153° Southeast  Level FlightAware Approximate
05:13AM 18.3468 -72.2115 149° Southeast  Level FlightAware Approximate
05:14AM 18.2309 -72.1377 149° Southeast  Level FlightAware Approximate
05:14AM 18.1580 -72.0630 149° Southeast 484 557 33,000  Level FlightAware
05:15AM 18.1150 -72.0639 149° Southeast  Level FlightAware Approximate
05:15AM 18.0380 -71.9940 151° Southeast 485 558 33,000  Level FlightAware
05:15AM 17.9900 -71.9660 151° Southeast 486 559 33,000  Level FlightAware
05:16AM 17.9050 -71.9170 151° Southeast 485 558 33,000  Level FlightAware
05:17AM 17.7420 -71.8240 151° Southeast 486 559 33,000  Level FlightAware
05:18AM 17.6760 -71.7890 153° Southeast 486 559 33,000  Level FlightAware
05:19AM 17.5930 -71.7700 168° South 490 564 33,000  Level FlightAware
05:19AM 17.4880 -71.7520 171° South 492 566 33,000  Level FlightAware
05:20AM 17.4120 -71.7390 171° South 491 565 33,000  Level FlightAware
05:21AM 17.3350 -71.7260 171° South 491 565 33,000  Level FlightAware
05:21AM 17.2750 -71.7160 171° South 491 565 33,000  Level FlightAware
05:22AM 17.2030 -71.7040 171° South 491 565 33,000  Level FlightAware
05:22AM 17.1400 -71.6930 171° South 492 566 33,000  Level FlightAware
05:23AM 16.9990 -71.6670 170° South 492 566 33,000  Level FlightAware
05:24AM 16.9530 -71.6590 171° South 492 566 33,000  Level FlightAware
05:24AM 16.8620 -71.6420 170° South 492 566 33,000  Level FlightAware
05:25AM 16.7570 -71.6300 174° South 495 570 33,000  Level FlightAware
05:25AM 16.6800 -71.6180 172° South 495 570 33,000  Level FlightAware
05:26AM 16.6100 -71.6060 171° South 495 570 33,000  Level FlightAware
05:26AM 16.5620 -71.5980 171° South 495 570 33,000  Level FlightAware
05:27AM 16.4680 -71.5830 171° South 495 570 33,000  Level FlightAware
05:28AM 16.3990 -71.5710 171° South 495 570 33,000  Level FlightAware
05:29AM 16.3300 -71.5600 171° South 495 570 33,000  Level FlightAware
05:30AM 16.2140 -71.5410 171° South 495 570 33,000  Level FlightAware
05:30AM 16.1680 -71.5330 171° South 495 570 33,000  Level FlightAware
05:31AM 16.0990 -71.5220 171° South 495 570 33,000  Level FlightAware
05:31AM 16.0300 -71.5100 171° South 495 570 33,000  Level FlightAware
05:32AM 15.8910 -71.4870 171° South 495 570 33,000  Level FlightAware
05:33AM 15.8220 -71.4760 171° South 495 570 33,000  Level FlightAware
05:34AM 15.7300 -71.4610 171° South 495 570 33,000  Level FlightAware
05:34AM 15.6610 -71.4490 170° South 495 570 33,000  Level FlightAware
05:35AM 15.6140 -71.4420 172° South 495 570 33,000  Level FlightAware
05:38AM 15.2942 -71.2304 147° Southeast  Level Estimated
05:39AM 15.1799 -71.1550 148° Southeast  Level Estimated
05:39AM 15.0150 -71.0460 148° Southeast 480 552 33,000  Level FlightAware
05:39AM 14.9370 -71.0000 150° Southeast 478 550 33,000  Level FlightAware
05:40AM 14.8680 -70.9610 151° Southeast 478 550 33,000  Level FlightAware
05:41AM 14.7800 -70.9100 151° Southeast 480 552 33,000  Level FlightAware
05:41AM 14.7120 -70.8700 150° Southeast 480 552 33,000  Level FlightAware
05:42AM 14.6500 -70.8240 144° Southeast 475 547 33,000  Level FlightAware
05:42AM 14.5990 -70.7760 138° Southeast 481 554 33,000  Level FlightAware
05:43AM 14.5520 -70.7270 135° Southeast 475 547 33,000  Level FlightAware
05:44AM 14.4670 -70.6360 134° Southeast 481 554 33,000  Level FlightAware
05:44AM 14.4230 -70.5840 131° Southeast 476 548 33,000  Level FlightAware
05:45AM 14.3660 -70.5270 136° Southeast 477 549 33,000  Level FlightAware
05:45AM 14.2930 -70.4760 146° Southeast 478 550 33,000  Level FlightAware
05:46AM 14.2090 -70.4140 144° Southeast 483 556 33,000  Level FlightAware
05:47AM 14.1370 -70.3610 144° Southeast 476 548 33,000  Level FlightAware
05:47AM 14.0710 -70.3160 147° Southeast 481 554 33,000  Level FlightAware
05:48AM 13.9690 -70.2460 146° Southeast 482 555 33,000  Level FlightAware
05:49AM 13.9030 -70.2010 147° Southeast 482 555 33,000  Level FlightAware
05:49AM 13.8470 -70.1640 147° Southeast 481 554 33,000  Level FlightAware
05:50AM 13.7900 -70.1240 146° Southeast 481 554 33,000  Level FlightAware
05:50AM 13.7250 -70.0810 147° Southeast 484 557 33,000  Level FlightAware
05:51AM 13.6580 -70.0350 146° Southeast 483 556 33,000  Level FlightAware
05:52AM 13.5950 -69.9920 146° Southeast 482 555 33,000  Level FlightAware
05:52AM 13.5190 -69.9400 146° Southeast 481 554 33,000  Level FlightAware
05:53AM 13.4360 -69.8840 147° Southeast 480 552 33,000  Level FlightAware
05:54AM 13.3610 -69.8330 147° Southeast 479 551 33,000  Level FlightAware
05:54AM 13.3070 -69.7970 147° Southeast 478 550 33,000  Level FlightAware
05:55AM 13.1950 -69.7210 147° Southeast 479 551 33,000  Level FlightAware
05:56AM 13.1100 -69.6640 147° Southeast 479 551 33,000  Level FlightAware
05:57AM 13.0540 -69.6260 147° Southeast 480 552 33,000  Level FlightAware
05:57AM 12.9500 -69.5560 147° Southeast 479 551 33,000  Level FlightAware
05:58AM 12.8770 -69.5060 146° Southeast 478 550 33,000  Level FlightAware
05:59AM 12.8040 -69.4570 147° Southeast 470 541 33,000  Level FlightAware
05:59AM 12.7470 -69.4190 147° Southeast 470 541 33,000  Level FlightAware
06:00AM 12.6640 -69.3630 147° Southeast 469 540 33,000  Level FlightAware
06:01AM 12.5740 -69.3030 147° Southeast 477 549 33,000  Level FlightAware
06:01AM 12.5170 -69.2640 146° Southeast 478 550 33,000 600 Level FlightAware
06:02AM 12.4360 -69.2100 147° Southeast 469 540 33,800 1,320 Climbing FlightAware
06:03AM 12.3710 -69.1660 147° Southeast 464 534 34,800 1,140 Climbing FlightAware
06:03AM 12.3230 -69.1340 147° Southeast 465 535 35,000 120 Climbing FlightAware
06:04AM 12.2500 -69.0850 147° Southeast 469 540 35,000  Level FlightAware
06:05AM 12.1620 -69.0260 147° Southeast 481 554 35,000  Level FlightAware
06:05AM 12.0920 -68.9790 147° Southeast 484 557 35,000  Level FlightAware
06:06AM 12.0120 -68.9260 147° Southeast 484 557 35,000  Level FlightAware
06:06AM 11.9510 -68.8850 147° Southeast 484 557 35,000  Level FlightAware
06:08AM 11.8160 -68.7950 147° Southeast 482 555 35,000  Level FlightAware
06:08AM 11.7470 -68.7500 147° Southeast 479 551 35,000  Level FlightAware
06:09AM 11.6130 -68.6720 150° Southeast 480 552 35,000  Level FlightAware
06:10AM 11.5460 -68.6340 151° Southeast 479 551 35,000  Level FlightAware
06:10AM 11.4960 -68.6050 150° Southeast 478 550 35,000  Level FlightAware
06:11AM 11.4110 -68.5560 151° Southeast 478 550 35,000  Level FlightAware
06:12AM 11.3420 -68.5170 151° Southeast 477 549 35,000  Level FlightAware
06:12AM 11.2730 -68.4780 151° Southeast 476 548 35,000  Level FlightAware
06:13AM 11.1880 -68.4230 148° Southeast 478 550 35,000  Level FlightAware
06:14AM 11.1500 -68.3700 126° Southeast 481 554 35,000  Level FlightAware
06:14AM 11.1160 -68.2830 112° Southeast 487 560 35,000  Level FlightAware
06:15AM 11.0920 -68.2200 111° Southeast 485 558 35,000  Level FlightAware
06:16AM 11.0510 -68.1110 111° Southeast 489 563 35,000  Level FlightAware
06:16AM 11.0220 -68.0360 111° Southeast 490 564 35,000  Level FlightAware
06:17AM 10.9850 -67.9400 111° Southeast 489 563 35,000  Level FlightAware
06:18AM 10.9510 -67.8540 112° Southeast 488 562 35,000  Level FlightAware
06:18AM 10.9250 -67.7890 112° Southeast 486 559 35,000  Level FlightAware
06:19AM 10.8910 -67.7030 112° Southeast 485 558 35,000  Level FlightAware
06:19AM 10.8670 -67.6420 112° Southeast 484 557 35,000  Level FlightAware
06:20AM 10.8250 -67.5350 112° Southeast 483 556 35,000  Level FlightAware
06:21AM 10.7920 -67.4510 112° Southeast 482 555 35,000  Level FlightAware
06:21AM 10.7590 -67.3670 112° Southeast 482 555 35,000  Level FlightAware
06:22AM 10.7290 -67.2920 112° Southeast 483 556 35,000  Level FlightAware
06:23AM 10.6960 -67.2090 112° Southeast 484 557 35,000  Level FlightAware
06:23AM 10.6710 -67.1440 111° Southeast 484 557 35,000  Level FlightAware
06:24AM 10.6460 -67.0810 112° Southeast 484 557 35,000  Level FlightAware
06:24AM 10.5970 -66.9920 119° Southeast 478 550 35,000  Level FlightAware
06:25AM 10.5150 -66.9320 144° Southeast 474 545 35,000  Level FlightAware
06:26AM 10.4380 -66.8860 150° Southeast 481 554 35,000  Level FlightAware
06:26AM 10.3710 -66.8460 150° Southeast 483 556 35,000  Level FlightAware
06:27AM 10.3150 -66.8090 147° Southeast 475 547 35,000  Level FlightAware
06:27AM 10.2720 -66.7580 131° Southeast 483 556 35,000  Level FlightAware
06:28AM 10.2100 -66.6340 117° Southeast 483 556 35,000  Level FlightAware
06:29AM 10.1670 -66.5460 116° Southeast 484 557 35,000  Level FlightAware
06:30AM 10.1300 -66.4710 117° Southeast 482 555 35,000  Level FlightAware
06:30AM 10.0880 -66.3870 117° Southeast 483 556 35,000  Level FlightAware
06:31AM 10.0460 -66.3030 117° Southeast 483 556 35,000  Level FlightAware
06:32AM 9.9820 -66.1760 117° Southeast 487 560 35,000  Level FlightAware
06:33AM 9.9490 -66.1100 117° Southeast 483 556 35,000  Level FlightAware
06:33AM 9.9160 -66.0420 116° Southeast 483 556 35,000  Level FlightAware
06:34AM 9.8860 -65.9800 116° Southeast 483 556 35,000  Level FlightAware
06:35AM 9.8450 -65.8950 116° Southeast 483 556 35,000  Level FlightAware
06:36AM 9.8050 -65.8120 116° Southeast 483 556 35,000  Level FlightAware
06:37AM 9.7550 -65.7080 116° Southeast 483 556 35,000  Level FlightAware
06:37AM 9.7250 -65.6450 116° Southeast 483 556 35,000  Level FlightAware
06:38AM 9.6950 -65.5830 116° Southeast 483 556 35,000  Level FlightAware
06:39AM 9.6550 -65.5000 116° Southeast 483 556 35,000  Level FlightAware
06:39AM 9.6250 -65.4380 116° Southeast 483 556 35,000  Level FlightAware
06:40AM 9.5950 -65.3750 116° Southeast 483 556 35,000  Level FlightAware
06:40AM 9.5650 -65.3130 116° Southeast 483 556 35,000  Level FlightAware
06:41AM 9.5230 -65.2250 116° Southeast 483 556 35,000  Level FlightAware
06:42AM 9.4920 -65.1610 116° Southeast 483 556 35,000  Level FlightAware
06:43AM 9.4520 -65.0780 116° Southeast 483 556 35,000  Level FlightAware
06:46AM 9.1121 -64.9209 155° Southeast  Level FlightAware Approximate
06:47AM 8.9921 -64.8655 155° Southeast  Level FlightAware Approximate
06:48AM 8.8722 -64.8102 156° South  Level FlightAware Approximate
06:49AM 8.7565 -64.7461 145° Southeast  Level Estimated
06:50AM 8.6482 -64.6700 145° Southeast  Level FlightAware Approximate
06:51AM 8.5400 -64.5939 145° Southeast  Level FlightAware Approximate
06:52AM 8.4317 -64.5179 145° Southeast  Level FlightAware Approximate
06:53AM 8.3234 -64.4419 145° Southeast  Level FlightAware Approximate
06:54AM 8.2150 -64.3659 145° Southeast  Level FlightAware Approximate
06:55AM 8.1067 -64.2900 145° Southeast  Level FlightAware Approximate
06:56AM 7.9984 -64.2141 145° Southeast  Level FlightAware Approximate
06:57AM 7.8900 -64.1383 145° Southeast  Level FlightAware Approximate
06:58AM 7.7816 -64.0625 145° Southeast  Level FlightAware Approximate
06:59AM 7.6732 -63.9867 145° Southeast  Level FlightAware Approximate
07:00AM 7.5648 -63.9110 145° Southeast  Level FlightAware Approximate
07:01AM 7.4564 -63.8353 145° Southeast  Level FlightAware Approximate
07:02AM 7.3480 -63.7597 145° Southeast  Level FlightAware Approximate
07:03AM 7.2395 -63.6841 145° Southeast  Level FlightAware Approximate
07:04AM 7.1311 -63.6085 145° Southeast  Level FlightAware Approximate
07:05AM 7.0226 -63.5330 145° Southeast  Level FlightAware Approximate
07:06AM 6.9141 -63.4575 145° Southeast  Level FlightAware Approximate
07:07AM 6.8056 -63.3820 145° Southeast  Level FlightAware Approximate
07:08AM 6.6971 -63.3066 145° Southeast  Level FlightAware Approximate
07:09AM 6.5886 -63.2312 145° Southeast  Level FlightAware Approximate
07:10AM 6.4801 -63.1559 145° Southeast  Level FlightAware Approximate
07:11AM 6.3715 -63.0805 145° Southeast  Level FlightAware Approximate
07:12AM 6.2630 -63.0052 145° Southeast  Level FlightAware Approximate
07:13AM 6.1466 -62.9430 146° Southeast  Level Estimated
07:14AM 6.0378 -62.8680 146° Southeast  Level FlightAware Approximate
07:15AM 5.9291 -62.7930 146° Southeast  Level FlightAware Approximate
07:16AM 5.8203 -62.7181 146° Southeast  Level FlightAware Approximate
07:17AM 5.7115 -62.6432 146° Southeast  Level FlightAware Approximate
07:18AM 5.6027 -62.5683 146° Southeast  Level FlightAware Approximate
07:19AM 5.4940 -62.4935 146° Southeast  Level FlightAware Approximate
07:20AM 5.3852 -62.4187 146° Southeast  Level FlightAware Approximate
07:21AM 5.2764 -62.3439 146° Southeast  Level FlightAware Approximate
07:22AM 5.1675 -62.2691 146° Southeast  Level FlightAware Approximate
07:23AM 5.0587 -62.1944 146° Southeast  Level FlightAware Approximate
07:24AM 4.9499 -62.1197 146° Southeast  Level FlightAware Approximate
07:25AM 4.8410 -62.0450 146° Southeast  Level FlightAware Approximate
07:26AM 4.7322 -61.9703 146° Southeast  Level FlightAware Approximate
07:27AM 4.6233 -61.8957 146° Southeast  Level FlightAware Approximate
07:28AM 4.5145 -61.8211 146° Southeast  Level FlightAware Approximate
07:29AM 4.4056 -61.7465 146° Southeast  Level FlightAware Approximate
07:30AM 4.2967 -61.6719 146° Southeast  Level FlightAware Approximate
07:31AM 4.1878 -61.5974 146° Southeast  Level FlightAware Approximate
07:32AM 4.0789 -61.5228 146° Southeast  Level FlightAware Approximate
07:33AM 3.9700 -61.4483 146° Southeast  Level FlightAware Approximate
07:34AM 3.8611 -61.3738 146° Southeast  Level FlightAware Approximate
07:35AM 3.7522 -61.2994 146° Southeast  Level FlightAware Approximate
07:36AM 3.6432 -61.2249 146° Southeast  Level FlightAware Approximate
07:37AM 3.5343 -61.1505 146° Southeast  Level FlightAware Approximate
07:38AM 3.4254 -61.0761 146° Southeast  Level FlightAware Approximate
07:39AM 3.3165 -61.0017 146° Southeast  Level FlightAware Approximate
07:40AM 3.2075 -60.9273 146° Southeast  Level FlightAware Approximate
07:41AM 3.0986 -60.8529 146° Southeast  Level FlightAware Approximate
07:42AM 2.9896 -60.7786 146° Southeast  Level FlightAware Approximate
07:43AM 2.8806 -60.7042 146° Southeast  Level FlightAware Approximate
07:44AM 2.7632 -60.6442 153° Southeast  Level Estimated
07:45AM 2.6462 -60.5833 153° Southeast  Level FlightAware Approximate
07:46AM 2.5292 -60.5225 153° Southeast  Level FlightAware Approximate
07:47AM 2.4122 -60.4616 153° Southeast  Level FlightAware Approximate
07:48AM 2.2952 -60.4008 153° Southeast  Level FlightAware Approximate
07:49AM 2.1782 -60.3400 153° Southeast  Level FlightAware Approximate
07:50AM 2.0608 -60.2800 153° Southeast  Level Estimated
07:51AM 1.9433 -60.2200 153° Southeast  Level FlightAware Approximate
07:52AM 1.8259 -60.1600 153° Southeast  Level FlightAware Approximate
07:53AM 1.7085 -60.1000 153° Southeast  Level FlightAware Approximate
07:54AM 1.5911 -60.0401 153° Southeast  Level FlightAware Approximate
07:55AM 1.4736 -59.9801 153° Southeast  Level FlightAware Approximate
07:56AM 1.3562 -59.9201 153° Southeast  Level FlightAware Approximate
07:57AM 1.2388 -59.8601 153° Southeast  Level FlightAware Approximate
07:58AM 1.1213 -59.8002 153° Southeast  Level FlightAware Approximate
07:59AM 1.0039 -59.7402 153° Southeast  Level FlightAware Approximate
08:00AM 0.8865 -59.6803 153° Southeast  Level FlightAware Approximate
08:01AM 0.7690 -59.6203 153° Southeast  Level FlightAware Approximate
08:02AM 0.6516 -59.5604 153° Southeast  Level FlightAware Approximate
08:03AM 0.5342 -59.5004 153° Southeast  Level FlightAware Approximate
08:04AM 0.4167 -59.4405 153° Southeast  Level FlightAware Approximate
08:05AM 0.2993 -59.3805 153° Southeast  Level FlightAware Approximate
08:06AM 0.1818 -59.3206 153° Southeast  Level FlightAware Approximate
08:07AM 0.0644 -59.2607 153° Southeast  Level FlightAware Approximate
08:08AM -0.0530 -59.2007 153° Southeast  Level FlightAware Approximate
08:09AM -0.1705 -59.1408 153° Southeast  Level FlightAware Approximate
08:10AM -0.2879 -59.0808 153° Southeast  Level FlightAware Approximate
08:11AM -0.4054 -59.0209 153° Southeast  Level FlightAware Approximate
08:12AM -0.5228 -58.9610 153° Southeast  Level FlightAware Approximate
08:13AM -0.6402 -58.9010 153° Southeast  Level FlightAware Approximate
08:14AM -0.7577 -58.8411 153° Southeast  Level FlightAware Approximate
08:15AM -0.8751 -58.7811 153° Southeast  Level FlightAware Approximate
08:16AM -0.9926 -58.7212 153° Southeast  Level FlightAware Approximate
08:17AM -1.1100 -58.6612 153° Southeast  Level FlightAware Approximate
08:18AM -1.2274 -58.6012 153° Southeast  Level FlightAware Approximate
08:19AM -1.3448 -58.5413 153° Southeast  Level FlightAware Approximate
08:20AM -1.4623 -58.4813 153° Southeast  Level FlightAware Approximate
08:21AM -1.5797 -58.4213 153° Southeast  Level FlightAware Approximate
08:22AM -1.6971 -58.3613 153° Southeast  Level FlightAware Approximate
08:23AM -1.8146 -58.3013 153° Southeast  Level FlightAware Approximate
08:24AM -1.9320 -58.2413 153° Southeast  Level FlightAware Approximate
08:25AM -2.0494 -58.1813 153° Southeast  Level FlightAware Approximate
08:26AM -2.1668 -58.1213 153° Southeast  Level FlightAware Approximate
08:27AM -2.2842 -58.0613 153° Southeast  Level FlightAware Approximate
08:28AM -2.4016 -58.0013 153° Southeast  Level FlightAware Approximate
08:29AM -2.5190 -57.9412 153° Southeast  Level FlightAware Approximate
08:30AM -2.6365 -57.8811 153° Southeast  Level FlightAware Approximate
08:31AM -2.7539 -57.8211 153° Southeast  Level FlightAware Approximate
08:32AM -2.8713 -57.7610 153° Southeast  Level FlightAware Approximate
08:33AM -2.9887 -57.7009 153° Southeast  Level FlightAware Approximate
08:34AM -3.1061 -57.6408 153° Southeast  Level FlightAware Approximate
08:35AM -3.2234 -57.5807 153° Southeast  Level FlightAware Approximate
08:36AM -3.3408 -57.5205 153° Southeast  Level FlightAware Approximate
08:37AM -3.4582 -57.4604 153° Southeast  Level FlightAware Approximate
08:38AM -3.5756 -57.4002 153° Southeast  Level FlightAware Approximate
08:39AM -3.6930 -57.3400 153° Southeast  Level FlightAware Approximate
08:40AM -3.8103 -57.2799 153° Southeast  Level FlightAware Approximate
08:41AM -3.9277 -57.2197 153° Southeast  Level FlightAware Approximate
08:42AM -4.0451 -57.1594 153° Southeast  Level FlightAware Approximate
08:43AM -4.1624 -57.0992 153° Southeast  Level FlightAware Approximate
08:44AM -4.2798 -57.0389 153° Southeast  Level FlightAware Approximate
08:45AM -4.3972 -56.9786 153° Southeast  Level FlightAware Approximate
08:46AM -4.5145 -56.9183 153° Southeast  Level FlightAware Approximate
08:47AM -4.6318 -56.8580 153° Southeast  Level FlightAware Approximate
08:48AM -4.7492 -56.7977 153° Southeast  Level FlightAware Approximate
08:49AM -4.8665 -56.7373 153° Southeast  Level FlightAware Approximate
08:50AM -4.9838 -56.6769 153° Southeast  Level FlightAware Approximate
08:51AM -5.1012 -56.6165 153° Southeast  Level FlightAware Approximate
08:52AM -5.2185 -56.5561 153° Southeast  Level FlightAware Approximate
08:53AM -5.3358 -56.4957 153° Southeast  Level FlightAware Approximate
08:54AM -5.4531 -56.4352 153° Southeast  Level FlightAware Approximate
08:55AM -5.5704 -56.3747 153° Southeast  Level FlightAware Approximate
08:56AM -5.6877 -56.3142 153° Southeast  Level FlightAware Approximate
08:57AM -5.8049 -56.2536 153° Southeast  Level FlightAware Approximate
08:58AM -5.9222 -56.1931 153° Southeast  Level FlightAware Approximate
08:59AM -6.0395 -56.1325 153° Southeast  Level FlightAware Approximate
09:00AM -6.1568 -56.0718 153° Southeast  Level FlightAware Approximate
09:01AM -6.2740 -56.0112 153° Southeast  Level FlightAware Approximate
09:02AM -6.3913 -55.9505 153° Southeast  Level FlightAware Approximate
09:03AM -6.5085 -55.8898 153° Southeast  Level FlightAware Approximate
09:04AM -6.6257 -55.8291 153° Southeast  Level FlightAware Approximate
09:05AM -6.7430 -55.7683 153° Southeast  Level FlightAware Approximate
09:06AM -6.8602 -55.7076 153° Southeast  Level FlightAware Approximate
09:07AM -6.9774 -55.6467 153° Southeast  Level FlightAware Approximate
09:08AM -7.0946 -55.5859 153° Southeast  Level FlightAware Approximate
09:09AM -7.2118 -55.5250 153° Southeast  Level FlightAware Approximate
09:10AM -7.3290 -55.4641 153° Southeast  Level FlightAware Approximate
09:11AM -7.4462 -55.4031 153° Southeast  Level FlightAware Approximate
09:12AM -7.5634 -55.3422 153° Southeast  Level FlightAware Approximate
09:13AM -7.6805 -55.2812 153° Southeast  Level FlightAware Approximate
09:14AM -7.7977 -55.2201 153° Southeast  Level FlightAware Approximate
09:15AM -7.9148 -55.1590 153° Southeast  Level FlightAware Approximate
09:16AM -8.0320 -55.0979 153° Southeast  Level FlightAware Approximate
09:17AM -8.1491 -55.0368 153° Southeast  Level FlightAware Approximate
09:18AM -8.2662 -54.9756 153° Southeast  Level FlightAware Approximate
09:19AM -8.3833 -54.9144 153° Southeast  Level FlightAware Approximate
09:20AM -8.5004 -54.8531 153° Southeast  Level FlightAware Approximate
09:21AM -8.6175 -54.7918 153° Southeast  Level FlightAware Approximate
09:22AM -8.7346 -54.7305 153° Southeast  Level FlightAware Approximate
09:23AM -8.8517 -54.6691 153° Southeast  Level FlightAware Approximate
09:24AM -8.9687 -54.6077 153° Southeast  Level FlightAware Approximate
09:25AM -9.0858 -54.5463 153° Southeast  Level FlightAware Approximate
09:26AM -9.2028 -54.4848 153° Southeast  Level FlightAware Approximate
09:27AM -9.3198 -54.4232 153° Southeast  Level FlightAware Approximate
09:28AM -9.4369 -54.3617 153° Southeast  Level FlightAware Approximate
09:29AM -9.5539 -54.3001 153° Southeast  Level FlightAware Approximate
09:30AM -9.6709 -54.2384 153° Southeast  Level FlightAware Approximate
09:31AM -9.7879 -54.1767 153° Southeast  Level FlightAware Approximate
09:32AM -9.9048 -54.1150 153° Southeast  Level FlightAware Approximate
09:33AM -10.0218 -54.0532 153° Southeast  Level FlightAware Approximate
09:34AM -10.1388 -53.9913 153° Southeast  Level FlightAware Approximate
09:35AM -10.2557 -53.9295 152° Southeast  Level FlightAware Approximate
09:36AM -10.3726 -53.8675 152° Southeast  Level FlightAware Approximate
09:37AM -10.4895 -53.8056 152° Southeast  Level FlightAware Approximate
09:38AM -10.6065 -53.7436 152° Southeast  Level FlightAware Approximate
09:39AM -10.7233 -53.6815 152° Southeast  Level FlightAware Approximate
09:40AM -10.8402 -53.6194 152° Southeast  Level FlightAware Approximate
09:41AM -10.9571 -53.5572 152° Southeast  Level FlightAware Approximate
09:42AM -11.0740 -53.4950 152° Southeast  Level FlightAware Approximate
09:43AM -11.1908 -53.4328 152° Southeast  Level FlightAware Approximate
09:44AM -11.3076 -53.3705 152° Southeast  Level FlightAware Approximate
09:45AM -11.4244 -53.3081 152° Southeast  Level FlightAware Approximate
09:46AM -11.5413 -53.2457 152° Southeast  Level FlightAware Approximate
09:47AM -11.6580 -53.1832 152° Southeast  Level FlightAware Approximate
09:48AM -11.7748 -53.1207 152° Southeast  Level FlightAware Approximate
09:49AM -11.8916 -53.0582 152° Southeast  Level FlightAware Approximate
09:50AM -12.0084 -52.9955 152° Southeast  Level FlightAware Approximate
09:51AM -12.1251 -52.9328 152° Southeast  Level FlightAware Approximate
09:52AM -12.2418 -52.8701 152° Southeast  Level FlightAware Approximate
09:53AM -12.3585 -52.8073 152° Southeast  Level FlightAware Approximate
09:54AM -12.4752 -52.7445 152° Southeast  Level FlightAware Approximate
09:55AM -12.5919 -52.6816 152° Southeast  Level FlightAware Approximate
09:56AM -12.7086 -52.6186 152° Southeast  Level FlightAware Approximate
09:57AM -12.8252 -52.5556 152° Southeast  Level FlightAware Approximate
09:58AM -12.9418 -52.4925 152° Southeast  Level FlightAware Approximate
09:59AM -13.0585 -52.4294 152° Southeast  Level FlightAware Approximate
10:00AM -13.1751 -52.3662 152° Southeast  Level FlightAware Approximate
10:01AM -13.2917 -52.3030 152° Southeast  Level FlightAware Approximate
10:02AM -13.4082 -52.2397 152° Southeast  Level FlightAware Approximate
10:03AM -13.5248 -52.1763 152° Southeast  Level FlightAware Approximate
10:04AM -13.6413 -52.1129 152° Southeast  Level FlightAware Approximate
10:05AM -13.7579 -52.0494 152° Southeast  Level FlightAware Approximate
10:06AM -13.8744 -51.9858 152° Southeast  Level FlightAware Approximate
10:07AM -13.9909 -51.9222 152° Southeast  Level FlightAware Approximate
10:08AM -14.1073 -51.8585 152° Southeast  Level FlightAware Approximate
10:09AM -14.2238 -51.7947 152° Southeast  Level FlightAware Approximate
10:10AM -14.3402 -51.7309 152° Southeast  Level FlightAware Approximate
10:11AM -14.4567 -51.6670 152° Southeast  Level FlightAware Approximate
10:12AM -14.5731 -51.6031 152° Southeast  Level FlightAware Approximate
10:13AM -14.6895 -51.5391 152° Southeast  Level FlightAware Approximate
10:14AM -14.8058 -51.4750 152° Southeast  Level FlightAware Approximate
10:15AM -14.9222 -51.4108 152° Southeast  Level FlightAware Approximate
10:16AM -15.0385 -51.3466 152° Southeast  Level FlightAware Approximate
10:17AM -15.1549 -51.2823 152° Southeast  Level FlightAware Approximate
10:18AM -15.2712 -51.2179 152° Southeast  Level FlightAware Approximate
10:19AM -15.3874 -51.1535 152° Southeast  Level FlightAware Approximate
10:20AM -15.5037 -51.0890 152° Southeast  Level FlightAware Approximate
10:21AM -15.6200 -51.0244 152° Southeast  Level FlightAware Approximate
10:22AM -15.7362 -50.9597 152° Southeast  Level FlightAware Approximate
10:23AM -15.8524 -50.8950 152° Southeast  Level FlightAware Approximate
10:24AM -15.9686 -50.8302 152° Southeast  Level FlightAware Approximate
10:25AM -16.0847 -50.7653 152° Southeast  Level FlightAware Approximate
10:26AM -16.2009 -50.7003 152° Southeast  Level FlightAware Approximate
10:27AM -16.3170 -50.6353 152° Southeast  Level FlightAware Approximate
10:28AM -16.4331 -50.5702 152° Southeast  Level FlightAware Approximate
10:29AM -16.5492 -50.5050 152° Southeast  Level FlightAware Approximate
10:30AM -16.6653 -50.4397 152° Southeast  Level FlightAware Approximate
10:31AM -16.7813 -50.3744 152° Southeast  Level FlightAware Approximate
10:32AM -16.8974 -50.3089 152° Southeast  Level FlightAware Approximate
10:33AM -17.0134 -50.2434 152° Southeast  Level FlightAware Approximate
10:34AM -17.1294 -50.1778 152° Southeast  Level FlightAware Approximate
10:35AM -17.2453 -50.1122 152° Southeast  Level FlightAware Approximate
10:36AM -17.3613 -50.0464 152° Southeast  Level FlightAware Approximate
10:37AM -17.4772 -49.9806 152° Southeast  Level FlightAware Approximate
10:38AM -17.5931 -49.9147 152° Southeast  Level FlightAware Approximate
10:39AM -17.7090 -49.8487 152° Southeast  Level FlightAware Approximate
10:40AM -17.8249 -49.7826 151° Southeast  Level FlightAware Approximate
10:41AM -17.9407 -49.7164 151° Southeast  Level FlightAware Approximate
10:41AM -18.1340 -49.9600 151° Southeast 472 543 35,000  Level FlightAware
10:41AM -18.2260 -49.9110 153° Southeast 474 545 35,000  Level FlightAware
10:42AM -18.0565 -49.6501 151° Southeast  Level FlightAware Approximate
10:42AM -18.3020 -49.8700 153° Southeast 473 544 35,000  Level FlightAware
10:43AM -18.3660 -49.8360 153° Southeast 473 544 35,000  Level FlightAware
10:43AM -18.4450 -49.7940 153° Southeast 474 545 35,000  Level FlightAware
10:44AM -18.5100 -49.7600 154° Southeast 474 545 35,000  Level FlightAware
10:45AM -18.5950 -49.7150 153° Southeast 474 545 35,000  Level FlightAware
10:45AM -18.6700 -49.6750 153° Southeast 474 545 35,000  Level FlightAware
10:46AM -18.7440 -49.6360 153° Southeast 474 545 35,000  Level FlightAware
10:46AM -18.8230 -49.5930 153° Southeast 476 548 35,000  Level FlightAware
10:47AM -18.9030 -49.5500 153° Southeast 476 548 35,000  Level FlightAware
10:48AM -18.9660 -49.5150 152° Southeast 477 549 35,000  Level FlightAware
10:48AM -19.0520 -49.4680 153° Southeast 477 549 35,000  Level FlightAware
10:49AM -19.1520 -49.4130 153° Southeast 478 550 35,000  Level FlightAware
10:50AM -19.2110 -49.3800 152° Southeast 478 550 35,000  Level FlightAware
10:51AM -19.3080 -49.3270 153° Southeast 479 551 35,000  Level FlightAware
10:51AM -19.3880 -49.2830 153° Southeast 481 554 35,000  Level FlightAware
10:52AM -19.4620 -49.2420 152° Southeast 481 554 35,000  Level FlightAware
10:53AM -19.5490 -49.1930 152° Southeast 480 552 35,000  Level FlightAware
10:53AM -19.6360 -49.1450 153° Southeast 480 552 35,000  Level FlightAware
10:54AM -19.7150 -49.1010 152° Southeast 480 552 35,000  Level FlightAware
10:55AM -19.8050 -49.0510 152° Southeast 477 549 35,000  Level FlightAware
10:55AM -19.8840 -49.0070 152° Southeast 476 548 35,000  Level FlightAware
10:56AM -19.9650 -48.9620 152° Southeast 476 548 35,000  Level FlightAware
10:57AM -20.0560 -48.9120 153° Southeast 475 547 35,000  Level FlightAware
10:58AM -20.1420 -48.8640 152° Southeast 475 547 35,000  Level FlightAware
10:59AM -20.2510 -48.8030 152° Southeast 475 547 35,000  Level FlightAware
10:59AM -20.3370 -48.7550 152° Southeast 476 548 35,000  Level FlightAware
11:00AM -20.4180 -48.7120 154° Southeast 476 548 35,000  Level FlightAware
11:01AM -20.4840 -48.6770 154° Southeast 475 547 35,000  Level FlightAware
11:01AM -20.5710 -48.6300 153° Southeast 477 549 35,000  Level FlightAware
11:02AM -20.6620 -48.5820 154° Southeast 478 550 35,000  Level FlightAware
11:03AM -20.7360 -48.5430 154° Southeast 478 550 35,000  Level FlightAware
11:03AM -20.8200 -48.4970 153° Southeast 478 550 35,000  Level FlightAware
11:04AM -20.9140 -48.4470 154° Southeast 477 549 35,000  Level FlightAware
11:05AM -21.0110 -48.3950 153° Southeast 477 549 35,000  Level FlightAware
11:06AM -21.0870 -48.3520 152° Southeast 479 551 35,000  Level FlightAware
11:06AM -21.1540 -48.2900 139° Southeast 491 565 35,000  Level FlightAware
11:07AM -21.2140 -48.2230 134° Southeast 490 564 35,000  Level FlightAware
11:07AM -21.2640 -48.1660 133° Southeast 490 564 35,000  Level FlightAware
11:08AM -21.3070 -48.1170 133° Southeast 489 563 35,000  Level FlightAware
11:09AM -21.3750 -48.0400 133° Southeast 490 564 35,000  Level FlightAware
11:09AM -21.4340 -47.9760 135° Southeast 488 562 35,000  Level FlightAware
11:10AM -21.5050 -47.9190 143° Southeast 485 558 35,000  Level FlightAware
11:11AM -21.5700 -47.8650 142° Southeast 485 558 35,000  Level FlightAware
11:11AM -21.6550 -47.7930 142° Southeast 487 560 35,000  Level FlightAware
11:12AM -21.7430 -47.7170 141° Southeast 485 558 35,000 -360 Level FlightAware
11:13AM -21.8100 -47.6600 142° Southeast 460 529 34,500 -1,380 Descending FlightAware
11:14AM -21.8900 -47.5930 142° Southeast 450 518 33,000 -1,920 Descending FlightAware
11:14AM -21.9460 -47.5450 142° Southeast 440 506 31,900 -1,800 Descending FlightAware
11:15AM -22.0050 -47.4960 142° Southeast 431 496 30,900 -1,740 Descending FlightAware
11:15AM -22.0610 -47.4480 142° Southeast 423 487 29,800 -1,860 Descending FlightAware
11:16AM -22.1170 -47.4000 142° Southeast 420 483 28,700 -1,740 Descending FlightAware
11:17AM -22.1730 -47.3530 142° Southeast 430 495 27,700 -1,680 Descending FlightAware
11:17AM -22.2340 -47.3010 142° Southeast 439 505 26,600 -1,740 Descending FlightAware
11:18AM -22.3050 -47.2400 142° Southeast 431 496 25,300 -1,740 Descending FlightAware
11:19AM -22.3740 -47.1820 142° Southeast 427 491 24,000 -1,560 Descending FlightAware
11:19AM -22.4320 -47.1330 142° Southeast 410 472 23,200 -1,200 Descending FlightAware
11:20AM -22.4660 -47.1040 142° Southeast 372 428 22,700 -2,040 Descending FlightAware
11:21AM -22.5370 -47.0430 142° Southeast 350 403 20,600 -2,160 Descending FlightAware
11:21AM -22.5840 -47.0090 146° Southeast 308 354 19,700 -2,100 Descending FlightAware
11:22AM -22.6380 -46.9780 152° Southeast 322 371 17,900 -2,100 Descending FlightAware
11:23AM -22.6970 -46.9440 152° Southeast 319 367 16,700 -1,680 Descending FlightAware
11:23AM -22.7410 -46.9190 152° Southeast 320 368 15,700 -1,440 Descending FlightAware
11:24AM -22.7880 -46.8920 152° Southeast 317 365 15,000 -1,200 Descending FlightAware
11:25AM -22.8390 -46.8600 150° Southeast 321 369 14,200 -1,380 Descending FlightAware
11:25AM -22.8840 -46.8090 134° Southeast 317 365 13,200 -1,440 Descending FlightAware
11:26AM -22.9380 -46.7540 137° Southeast 316 364 12,000 -1,380 Descending FlightAware
11:27AM -22.9760 -46.7150 137° Southeast 314 361 11,200 -1,320 Descending FlightAware
11:27AM -23.0170 -46.6730 137° Southeast 310 357 10,400 -1,320 Descending FlightAware
11:28AM -23.0630 -46.6280 138° Southeast 311 358 9,400 -1,140 Descending FlightAware
11:29AM -23.1010 -46.5890 137° Southeast 292 336 8,900 -360 Descending FlightAware
11:29AM -23.1360 -46.5530 137° Southeast 251 289 9,000 -480 Climbing FlightAware
11:30AM -23.1690 -46.5170 135° Southeast 245 282 8,300 -1,320 Descending FlightAware
11:31AM -23.1840 -46.4870 119° Southeast 252 290 7,400 -1,500 Descending FlightAware
11:31AM -23.2070 -46.4380 117° Southeast 244 281 6,500 -1,260 Descending FlightAware
11:32AM -23.2210 -46.4100 119° Southeast 239 275 6,000 -540 Descending FlightAware
11:32AM -23.2380 -46.3750 118° Southeast 237 273 6,000  Level FlightAware
11:33AM -23.2540 -46.3420 118° Southeast 227 261 6,000  Level FlightAware
11:33AM -23.2720 -46.3060 119° Southeast 225 259 6,000 -540 Level FlightAware
11:34AM -23.2890 -46.2720 119° Southeast 211 243 5,400 -960 Descending FlightAware
11:34AM -23.3030 -46.2450 119° Southeast 211 243 5,000 -360 Descending FlightAware
11:35AM -23.3320 -46.2180 139° Southeast 197 227 5,000  Level FlightAware
11:36AM -23.3520 -46.2320 213° Southwest 185 213 5,000  Level FlightAware
11:36AM -23.3690 -46.2610 237° Southwest 171 197 5,000  Level FlightAware
11:37AM -23.3870 -46.2950 240° Southwest 171 197 5,000 -120 Level FlightAware
11:38AM -23.3950 -46.3240 253° West 179 206 4,900 -660 Descending FlightAware
11:38AM -23.4030 -46.3550 254° West 169 194 4,300 -840 Descending FlightAware
11:39AM -23.4130 -46.3910 253° West 163 188 3,700 -900 Descending FlightAware
11:40AM -23.4250 -46.4350 253° West 168 193 2,900 -840 Descending FlightAware
11:40AM -23.4270 -46.4450 258° West 167 192 2,700 -480 Descending FlightAware
11:41AM -23.4360 -46.4770 253° West 105 121 -4,800 Descending FlightAware